Time;durP1;ratioP1;P1;durP2;ratioP2;P2;SDS_P1;SDS_P2;PMS_P1;PMS_P2;Temp;Humidity;BMP_temperature;BMP_pressure;BME280_temperature;BME280_humidity;BME280_pressure;Samples;Min_cycle;Max_cycle;Signal;HPM_P1;HPM_P2
2022/10/11 00:00:05;;;;;;;5.05;1.35;;;9.70;76.00;;;;;;4979679;28;20030;-70
2022/10/11 00:02:31;;;;;;;1.35;0.93;;;9.60;76.10;;;;;;4999601;28;20042;-68
2022/10/11 00:04:56;;;;;;;2.00;1.23;;;9.60;76.10;;;;;;4989831;28;20105;-68
2022/10/11 00:07:23;;;;;;;2.72;1.00;;;9.60;76.10;;;;;;4990182;28;20081;-70
2022/10/11 00:20:27;;;;;;;3.05;1.42;;;9.60;76.20;;;;;;4988302;28;20032;-68
2022/10/11 00:22:52;;;;;;;1.08;0.98;;;9.60;76.20;;;;;;4975781;28;20061;-66
2022/10/11 00:25:18;;;;;;;1.95;1.45;;;9.50;76.30;;;;;;4970196;28;20031;-66
2022/10/11 00:27:44;;;;;;;2.45;0.80;;;9.50;76.40;;;;;;4976660;28;20103;-66
2022/10/11 00:30:11;;;;;;;1.58;1.20;;;9.50;76.40;;;;;;4968542;28;20027;-68
2022/10/11 00:32:38;;;;;;;2.60;1.70;;;9.50;76.40;;;;;;4983322;28;20105;-68
2022/10/11 00:35:05;;;;;;;2.08;1.23;;;9.50;76.40;;;;;;4987601;28;20036;-66
2022/10/11 00:37:33;;;;;;;1.33;1.05;;;9.50;76.40;;;;;;4971847;28;20443;-68
2022/10/11 00:39:59;;;;;;;1.95;1.15;;;9.50;76.50;;;;;;4971147;28;20027;-67
2022/10/11 00:42:25;;;;;;;0.80;0.80;;;9.50;76.50;;;;;;4971620;28;20066;-67
2022/10/11 00:44:51;;;;;;;2.63;0.98;;;9.50;76.50;;;;;;4984059;28;20050;-67
2022/10/11 00:47:20;;;;;;;1.15;0.90;;;9.50;76.50;;;;;;4979214;28;20097;-67
2022/10/11 00:49:56;;;;;;;1.60;0.60;;;9.50;76.50;;;;;;4970609;28;20026;-67
2022/10/11 00:52:27;;;;;;;1.88;1.08;;;9.50;76.50;;;;;;4970994;28;20043;-68
2022/10/11 00:54:54;;;;;;;1.50;1.05;;;9.50;76.60;;;;;;4971743;28;20438;-70
2022/10/11 00:57:23;;;;;;;5.18;0.68;;;9.40;76.70;;;;;;4976616;28;20042;-69
2022/10/11 00:59:52;;;;;;;2.03;0.90;;;9.40;76.70;;;;;;4968160;28;20018;-69
2022/10/11 01:02:19;;;;;;;3.40;0.80;;;9.40;76.70;;;;;;4971630;28;20027;-69
2022/10/11 01:04:45;;;;;;;2.25;0.95;;;9.40;76.70;;;;;;4969848;28;20113;-69
2022/10/11 01:07:11;;;;;;;2.35;1.05;;;9.40;76.70;;;;;;4981449;28;20498;-69
2022/10/11 01:09:37;;;;;;;2.30;1.10;;;9.40;76.80;;;;;;4970398;28;20370;-69
2022/10/11 01:12:13;;;;;;;1.13;0.95;;;9.40;76.80;;;;;;4974415;28;20058;-69
2022/10/11 01:15:00;;;;;;;3.97;1.45;;;9.40;76.80;;;;;;4994297;28;20031;-70
2022/10/11 01:17:38;;;;;;;2.53;0.88;;;9.40;76.70;;;;;;4982206;28;20366;-69
2022/10/11 01:20:26;;;;;;;2.35;0.88;;;9.40;76.70;;;;;;4970165;28;20026;-68
2022/10/11 01:23:19;;;;;;;2.42;1.17;;;9.30;76.90;;;;;;4983514;28;20471;-68
2022/10/11 01:26:06;;;;;;;1.13;1.05;;;9.30;76.60;;;;;;4971352;28;20060;-68
2022/10/11 01:28:32;;;;;;;3.28;1.55;;;9.30;76.80;;;;;;4974194;28;20070;-68
2022/10/11 01:31:05;;;;;;;1.25;0.75;;;9.20;76.80;;;;;;4986112;28;20054;-70
2022/10/11 01:33:58;;;;;;;1.75;0.95;;;9.20;76.80;;;;;;4976609;28;20031;-69
2022/10/11 01:36:34;;;;;;;1.05;0.80;;;9.20;76.80;;;;;;4970564;28;20039;-68
2022/10/11 01:39:32;;;;;;;2.00;1.10;;;9.20;76.80;;;;;;4975620;28;20035;-69
2022/10/11 01:42:02;;;;;;;2.17;1.08;;;9.10;76.80;;;;;;4975037;28;20030;-70
2022/10/11 01:44:29;;;;;;;1.42;0.90;;;9.10;76.80;;;;;;4982122;28;20038;-70
2022/10/11 01:46:54;;;;;;;1.20;0.93;;;9.10;76.70;;;;;;4978863;28;20029;-69
2022/10/11 01:49:20;;;;;;;1.25;0.95;;;9.10;76.60;;;;;;4976161;28;20394;-70
2022/10/11 01:51:51;;;;;;;1.25;0.80;;;9.00;76.50;;;;;;4992945;28;20101;-69
2022/10/11 01:54:25;;;;;;;1.50;1.13;;;9.00;76.50;;;;;;4981056;28;20058;-69
2022/10/11 01:57:21;;;;;;;3.03;0.80;;;9.00;76.60;;;;;;4994246;28;20032;-69
2022/10/11 01:59:56;;;;;;;1.88;1.20;;;9.00;76.60;;;;;;4978494;28;20045;-70
2022/10/11 02:02:56;;;;;;;4.25;1.00;;;8.90;76.70;;;;;;4971671;28;20063;-68
2022/10/11 02:05:54;;;;;;;0.85;0.68;;;9.00;76.60;;;;;;4968230;28;20031;-70
2022/10/11 02:08:38;;;;;;;1.95;1.00;;;8.90;76.60;;;;;;4968527;28;20154;-69
2022/10/11 02:11:21;;;;;;;2.33;0.88;;;8.80;76.60;;;;;;4963511;28;20063;-68
2022/10/11 02:13:58;;;;;;;2.45;1.15;;;8.80;76.60;;;;;;4980929;28;20051;-68
2022/10/11 02:17:02;;;;;;;3.72;1.30;;;8.80;76.70;;;;;;4973433;28;20027;-68
2022/10/11 02:19:33;;;;;;;3.90;0.90;;;8.80;76.70;;;;;;4929985;28;20520;-68
2022/10/11 02:22:04;;;;;;;1.38;1.15;;;8.70;76.80;;;;;;4993711;28;20486;-69
2022/10/11 02:24:34;;;;;;;8.05;1.80;;;8.70;76.80;;;;;;5013603;28;20218;-69
2022/10/11 02:27:03;;;;;;;0.93;0.70;;;8.70;76.70;;;;;;5005944;28;20018;-69
2022/10/11 02:29:33;;;;;;;3.17;1.33;;;8.70;77.00;;;;;;5013063;28;20030;-69
2022/10/11 02:31:59;;;;;;;1.77;1.13;;;8.70;76.70;;;;;;5009267;28;20044;-70
2022/10/11 02:34:38;;;;;;;2.83;1.02;;;8.70;76.70;;;;;;5012750;28;20064;-69
2022/10/11 02:37:22;;;;;;;3.35;1.17;;;8.70;76.70;;;;;;4994354;28;20041;-74
2022/10/11 02:40:02;;;;;;;1.50;0.68;;;8.60;76.60;;;;;;5012872;28;20563;-67
2022/10/11 02:42:43;;;;;;;2.58;1.38;;;8.60;76.60;;;;;;5008330;28;20034;-68
2022/10/11 02:45:19;;;;;;;3.35;0.70;;;8.60;76.70;;;;;;4991064;28;20080;-68
2022/10/11 02:47:45;;;;;;;2.35;1.15;;;8.60;76.60;;;;;;5009818;28;20018;-68
2022/10/11 02:50:12;;;;;;;0.82;0.65;;;8.60;76.60;;;;;;5013186;28;20030;-68
2022/10/11 02:52:38;;;;;;;1.42;0.90;;;8.60;76.60;;;;;;4994640;28;20033;-67
2022/10/11 02:55:04;;;;;;;0.93;0.77;;;8.60;76.60;;;;;;5012868;28;20083;-67
2022/10/11 02:57:30;;;;;;;2.47;1.30;;;8.60;76.60;;;;;;4994337;28;20037;-67
2022/10/11 02:59:55;;;;;;;1.60;0.88;;;8.60;76.60;;;;;;5012607;28;20033;-67
2022/10/11 03:02:21;;;;;;;0.90;0.70;;;8.60;76.50;;;;;;5012256;28;20034;-67
2022/10/11 03:04:46;;;;;;;2.15;1.08;;;8.60;76.60;;;;;;4995344;28;20061;-68
2022/10/11 03:07:13;;;;;;;1.25;0.80;;;8.50;76.60;;;;;;5011662;28;20041;-67
2022/10/11 03:09:39;;;;;;;0.75;0.75;;;8.50;76.70;;;;;;5012722;28;20057;-66
2022/10/11 03:12:05;;;;;;;0.60;0.60;;;8.50;76.70;;;;;;4994829;28;20034;-69
2022/10/11 03:14:31;;;;;;;0.90;0.52;;;8.50;76.70;;;;;;5012470;28;20049;-67
2022/10/11 03:16:57;;;;;;;7.10;0.90;;;8.50;76.60;;;;;;5011972;28;20030;-67
2022/10/11 03:19:22;;;;;;;1.40;0.85;;;8.50;76.60;;;;;;4993554;28;20689;-68
2022/10/11 03:21:48;;;;;;;4.65;0.80;;;8.50;76.60;;;;;;5012877;28;20119;-68
2022/10/11 03:24:14;;;;;;;1.20;0.90;;;8.40;76.60;;;;;;5027556;28;20030;-67
2022/10/11 03:26:39;;;;;;;1.88;1.00;;;8.40;76.70;;;;;;5014537;28;20053;-68
2022/10/11 03:29:05;;;;;;;5.95;1.67;;;8.40;76.70;;;;;;5011386;28;20030;-67
2022/10/11 03:31:31;;;;;;;1.38;1.05;;;8.40;76.80;;;;;;5010919;28;20038;-67
2022/10/11 03:33:56;;;;;;;5.03;1.08;;;8.40;76.90;;;;;;5011301;28;20034;-67
2022/10/11 03:36:22;;;;;;;3.65;1.33;;;8.40;77.00;;;;;;4979420;28;20066;-67
2022/10/11 03:38:48;;;;;;;2.05;0.73;;;8.40;77.00;;;;;;5010530;28;20034;-69
2022/10/11 03:41:13;;;;;;;2.13;0.95;;;8.50;76.90;;;;;;5010002;28;20504;-68
2022/10/11 03:43:39;;;;;;;4.28;1.10;;;8.50;76.90;;;;;;5008571;28;20049;-71
2022/10/11 03:46:05;;;;;;;1.70;0.98;;;8.60;77.00;;;;;;4993879;28;20109;-70
2022/10/11 03:48:30;;;;;;;1.38;0.70;;;8.60;77.60;;;;;;4993071;28;20771;-69
2022/10/11 03:50:56;;;;;;;1.50;1.10;;;8.60;76.90;;;;;;5011600;28;20041;-69
2022/10/11 03:53:22;;;;;;;2.40;1.23;;;8.60;76.80;;;;;;4993501;28;20057;-69
2022/10/11 03:55:53;;;;;;;2.63;1.20;;;8.60;76.90;;;;;;5011090;28;20088;-69
2022/10/11 03:58:18;;;;;;;1.25;0.75;;;8.60;77.00;;;;;;5009313;28;20042;-69
2022/10/11 04:00:44;;;;;;;1.75;1.25;;;8.50;77.00;;;;;;4999626;28;20033;-70
2022/10/11 04:03:10;;;;;;;1.52;1.15;;;8.50;77.00;;;;;;4993451;28;20068;-69
2022/10/11 04:05:36;;;;;;;1.20;0.85;;;8.50;77.00;;;;;;5000316;28;20038;-70
2022/10/11 04:08:01;;;;;;;1.13;0.70;;;8.50;77.10;;;;;;4997857;28;20022;-70
2022/10/11 04:10:27;;;;;;;2.78;1.17;;;8.50;77.10;;;;;;5011365;28;20141;-70
2022/10/11 04:12:53;;;;;;;2.35;0.77;;;8.50;77.10;;;;;;4999590;28;20030;-70
2022/10/11 04:15:19;;;;;;;1.55;0.70;;;8.50;77.20;;;;;;4986972;28;20037;-67
2022/10/11 04:17:45;;;;;;;1.10;1.00;;;8.50;77.30;;;;;;5016938;28;20500;-67
2022/10/11 04:20:10;;;;;;;1.05;0.73;;;8.50;77.40;;;;;;5002754;28;20030;-67
2022/10/11 04:22:37;;;;;;;1.90;0.95;;;8.50;77.30;;;;;;4992795;28;20377;-66
2022/10/11 04:25:04;;;;;;;1.65;0.80;;;8.60;77.40;;;;;;4999109;28;20026;-70
2022/10/11 04:27:29;;;;;;;10.68;1.00;;;8.60;77.50;;;;;;4990620;28;20018;-68
2022/10/11 04:29:55;;;;;;;1.55;1.00;;;8.60;77.60;;;;;;4991597;28;20030;-70
2022/10/11 04:32:21;;;;;;;2.20;0.88;;;8.60;77.80;;;;;;4990352;28;20046;-69
2022/10/11 04:34:47;;;;;;;0.80;0.80;;;8.70;78.00;;;;;;5011483;28;20038;-69
2022/10/11 04:37:13;;;;;;;1.38;0.93;;;8.70;77.90;;;;;;4976379;28;20026;-68
2022/10/11 04:39:38;;;;;;;2.80;0.60;;;8.70;77.90;;;;;;5008357;28;20022;-67
2022/10/11 04:42:04;;;;;;;0.82;0.50;;;8.80;78.10;;;;;;5007990;28;20060;-68
2022/10/11 04:44:30;;;;;;;0.85;0.77;;;8.80;77.90;;;;;;5003319;28;20109;-68
2022/10/11 04:46:56;;;;;;;2.70;0.93;;;8.90;77.90;;;;;;4976111;28;20552;-67
2022/10/11 04:49:22;;;;;;;1.92;1.10;;;8.90;78.00;;;;;;5009878;28;20097;-67
2022/10/11 04:51:48;;;;;;;3.05;1.20;;;8.90;78.00;;;;;;5002674;28;20125;-67
2022/10/11 04:54:14;;;;;;;1.60;1.00;;;8.90;78.20;;;;;;4997175;28;20037;-68
2022/10/11 04:56:40;;;;;;;2.10;1.00;;;8.90;78.40;;;;;;4992033;28;20034;-67
2022/10/11 04:59:05;;;;;;;1.77;0.82;;;8.90;78.30;;;;;;4988705;28;20161;-67
2022/10/11 05:01:31;;;;;;;1.48;0.90;;;8.80;78.10;;;;;;5000663;28;20068;-67
2022/10/11 05:03:57;;;;;;;1.92;0.73;;;8.90;78.00;;;;;;5002677;28;20033;-68
2022/10/11 05:06:22;;;;;;;6.22;1.30;;;8.80;77.90;;;;;;4997593;28;20045;-67
2022/10/11 05:08:48;;;;;;;1.88;0.90;;;8.80;77.80;;;;;;4995123;28;20106;-67
2022/10/11 05:11:15;;;;;;;2.35;1.33;;;8.70;77.90;;;;;;4987617;28;20049;-67
2022/10/11 05:13:41;;;;;;;4.32;1.27;;;8.70;78.10;;;;;;4992916;28;20489;-68
2022/10/11 05:16:07;;;;;;;1.50;1.00;;;8.70;78.20;;;;;;5009215;28;20084;-67
2022/10/11 05:18:33;;;;;;;0.57;0.57;;;8.60;78.10;;;;;;5008665;28;20559;-67
2022/10/11 05:21:05;;;;;;;0.65;0.55;;;8.60;78.10;;;;;;4980776;28;20057;-67
2022/10/11 05:23:33;;;;;;;1.27;0.82;;;8.60;78.20;;;;;;5007962;28;20493;-67
2022/10/11 05:25:59;;;;;;;4.90;1.25;;;8.60;78.30;;;;;;5000548;28;20037;-68
2022/10/11 05:28:25;;;;;;;1.95;0.82;;;8.50;78.30;;;;;;4991923;28;20030;-68
2022/10/11 05:30:51;;;;;;;1.98;0.75;;;8.50;78.30;;;;;;5000298;28;20045;-68
2022/10/11 05:33:17;;;;;;;2.05;1.23;;;8.50;78.30;;;;;;5013648;28;20153;-68
2022/10/11 05:35:43;;;;;;;1.33;0.75;;;8.40;78.20;;;;;;5008282;28;20536;-69
2022/10/11 05:38:09;;;;;;;2.67;0.95;;;8.40;78.20;;;;;;5010128;28;20030;-68
2022/10/11 05:40:36;;;;;;;2.85;0.70;;;8.40;78.20;;;;;;5009293;28;20033;-68
2022/10/11 05:43:02;;;;;;;5.40;0.90;;;8.40;78.20;;;;;;5009840;28;20171;-69
2022/10/11 05:45:28;;;;;;;1.25;0.70;;;8.40;78.10;;;;;;5009351;28;20105;-67
2022/10/11 05:47:54;;;;;;;1.75;0.45;;;8.40;78.00;;;;;;5007974;28;20466;-67
2022/10/11 05:50:20;;;;;;;0.90;0.52;;;8.30;77.90;;;;;;5009472;28;20041;-67
2022/10/11 05:52:45;;;;;;;1.15;0.95;;;8.30;77.90;;;;;;5009555;28;20036;-69
2022/10/11 05:55:11;;;;;;;1.05;0.73;;;8.30;77.90;;;;;;5008671;28;20101;-69
2022/10/11 05:57:37;;;;;;;3.22;1.05;;;8.30;77.90;;;;;;5005882;28;20082;-68
2022/10/11 06:00:04;;;;;;;1.10;0.70;;;8.30;77.80;;;;;;4967445;28;20463;-68
2022/10/11 06:02:29;;;;;;;1.52;0.90;;;8.30;77.90;;;;;;4990497;28;20363;-68
2022/10/11 06:04:55;;;;;;;1.08;0.65;;;8.30;78.00;;;;;;5001823;28;20036;-67
2022/10/11 06:07:21;;;;;;;2.03;1.00;;;8.30;77.90;;;;;;5007845;28;20056;-69
2022/10/11 06:09:47;;;;;;;0.85;0.77;;;8.30;77.90;;;;;;4992257;28;20488;-68
2022/10/11 06:12:12;;;;;;;0.65;0.65;;;8.30;78.00;;;;;;5019043;28;20037;-69
2022/10/11 06:14:38;;;;;;;1.23;0.70;;;8.30;78.10;;;;;;5013572;28;20104;-68
2022/10/11 06:17:04;;;;;;;0.65;0.60;;;8.30;78.20;;;;;;5008626;28;20044;-69
2022/10/11 06:19:29;;;;;;;0.45;0.45;;;8.30;78.10;;;;;;5009321;28;20092;-67
2022/10/11 06:21:55;;;;;;;3.25;0.55;;;8.30;78.10;;;;;;4991328;28;20672;-67
2022/10/11 06:24:21;;;;;;;1.02;0.70;;;8.40;78.00;;;;;;4992129;28;20023;-67
2022/10/11 06:26:48;;;;;;;3.15;0.38;;;8.40;78.10;;;;;;4991847;28;20034;-69
2022/10/11 06:29:13;;;;;;;2.35;1.05;;;8.40;78.10;;;;;;4991340;28;20038;-69
2022/10/11 06:31:39;;;;;;;0.40;0.40;;;8.40;78.20;;;;;;4991423;28;20035;-69
2022/10/11 06:34:05;;;;;;;1.85;0.40;;;8.40;78.30;;;;;;4993426;28;20413;-68
2022/10/11 06:36:30;;;;;;;10.82;0.60;;;8.50;78.40;;;;;;4991713;28;20046;-67
2022/10/11 06:38:56;;;;;;;0.57;0.55;;;8.50;78.40;;;;;;4990843;28;20030;-67
2022/10/11 06:41:26;;;;;;;1.48;0.50;;;8.60;78.40;;;;;;5005306;28;20037;-69
2022/10/11 06:43:52;;;;;;;0.95;0.77;;;8.60;78.50;;;;;;4993174;28;20054;-69
2022/10/11 06:46:19;;;;;;;2.13;0.88;;;8.70;78.50;;;;;;4975142;28;20061;-68
2022/10/11 06:48:46;;;;;;;3.00;1.00;;;8.70;78.40;;;;;;4991114;28;20042;-69
2022/10/11 06:51:13;;;;;;;1.75;0.63;;;8.80;78.60;;;;;;4992381;28;20105;-69
2022/10/11 06:53:39;;;;;;;1.27;0.60;;;8.90;78.60;;;;;;4993349;28;20054;-68
2022/10/11 06:56:09;;;;;;;1.13;0.68;;;9.00;78.50;;;;;;4995924;28;20037;-69
2022/10/11 06:58:35;;;;;;;1.33;0.90;;;9.10;78.50;;;;;;4997596;28;20038;-69
2022/10/11 07:01:03;;;;;;;0.68;0.52;;;9.20;78.40;;;;;;4990938;28;20089;-69
2022/10/11 07:03:29;;;;;;;2.03;0.68;;;9.30;78.60;;;;;;4992796;28;20084;-68
2022/10/11 07:06:03;;;;;;;2.28;1.02;;;9.40;78.60;;;;;;4993360;28;20034;-68
2022/10/11 07:08:29;;;;;;;1.15;0.63;;;9.50;78.60;;;;;;4989828;28;20410;-67
2022/10/11 07:11:04;;;;;;;5.25;2.63;;;9.60;78.70;;;;;;4993086;28;20042;-67
2022/10/11 07:13:29;;;;;;;6.05;1.33;;;9.70;79.00;;;;;;5001380;28;20090;-67
2022/10/11 07:15:55;;;;;;;1.50;0.85;;;9.80;79.20;;;;;;5003542;28;20500;-68
2022/10/11 07:18:22;;;;;;;1.40;0.90;;;9.80;79.20;;;;;;4991457;28;20054;-67
2022/10/11 07:20:47;;;;;;;2.55;1.02;;;9.90;79.20;;;;;;4994969;28;20124;-67
2022/10/11 07:23:13;;;;;;;1.20;1.10;;;10.00;79.20;;;;;;5012115;28;20458;-67
2022/10/11 07:25:39;;;;;;;1.98;1.42;;;10.10;79.10;;;;;;4994408;28;20500;-67
2022/10/11 07:28:05;;;;;;;2.28;1.25;;;10.20;79.10;;;;;;5012149;28;20029;-67
2022/10/11 07:30:30;;;;;;;4.95;0.88;;;10.20;79.20;;;;;;4994636;28;20128;-67
2022/10/11 07:32:56;;;;;;;1.40;1.30;;;10.30;79.30;;;;;;4993087;28;20038;-69
2022/10/11 07:35:22;;;;;;;1.42;1.20;;;10.30;79.30;;;;;;4994220;28;20036;-68
2022/10/11 07:37:47;;;;;;;2.92;1.27;;;10.30;79.20;;;;;;5011086;28;20489;-68
2022/10/11 07:40:13;;;;;;;1.25;1.15;;;10.40;79.20;;;;;;5012205;28;20531;-67
2022/10/11 07:42:39;;;;;;;1.75;0.90;;;10.50;79.20;;;;;;4994485;28;20042;-69
2022/10/11 07:45:05;;;;;;;1.80;1.10;;;10.50;79.30;;;;;;5011862;28;20375;-67
2022/10/11 07:47:31;;;;;;;5.05;1.40;;;10.50;79.40;;;;;;4994170;28;20034;-68
2022/10/11 07:49:56;;;;;;;2.35;1.10;;;10.60;79.60;;;;;;4993850;28;20030;-66
2022/10/11 07:52:22;;;;;;;3.35;1.75;;;10.60;79.50;;;;;;4993483;28;20052;-67
2022/10/11 07:54:48;;;;;;;1.65;0.98;;;10.70;79.60;;;;;;5011711;28;20087;-66
2022/10/11 07:57:14;;;;;;;2.53;1.65;;;10.70;79.40;;;;;;4992125;28;20460;-66
2022/10/11 07:59:40;;;;;;;2.00;1.30;;;10.80;79.60;;;;;;5010371;28;20037;-69
2022/10/11 08:02:15;;;;;;;2.50;1.77;;;10.90;79.60;;;;;;4994486;28;20037;-68
2022/10/11 08:04:41;;;;;;;1.25;1.13;;;10.90;79.50;;;;;;5011363;28;20018;-66
2022/10/11 08:07:06;;;;;;;2.88;1.25;;;11.00;79.50;;;;;;5011232;28;20116;-68
2022/10/11 08:09:32;;;;;;;4.70;1.67;;;11.10;79.50;;;;;;5011537;28;20524;-68
2022/10/11 08:11:58;;;;;;;1.98;1.70;;;11.10;79.40;;;;;;5011369;28;20030;-69
2022/10/11 08:14:23;;;;;;;2.80;1.45;;;11.20;80.10;;;;;;5011013;28;20485;-69
2022/10/11 08:16:49;;;;;;;2.53;1.63;;;11.30;79.50;;;;;;4993197;28;20030;-68
2022/10/11 08:19:17;;;;;;;1.80;1.55;;;11.40;79.50;;;;;;5013533;28;20026;-69
2022/10/11 08:21:43;;;;;;;1.27;1.17;;;11.50;79.70;;;;;;5009960;28;20041;-70
2022/10/11 08:24:12;;;;;;;2.60;1.80;;;11.60;79.40;;;;;;5008994;28;20497;-69
2022/10/11 08:26:38;;;;;;;1.58;1.30;;;11.60;79.20;;;;;;5008438;28;20482;-67
2022/10/11 08:29:05;;;;;;;1.67;1.58;;;11.70;79.50;;;;;;5010472;28;20041;-68
2022/10/11 08:31:32;;;;;;;3.83;1.23;;;11.70;79.50;;;;;;5011006;28;20470;-70
2022/10/11 08:33:58;;;;;;;2.10;1.38;;;11.80;79.50;;;;;;5007309;28;20025;-69
2022/10/11 08:36:23;;;;;;;1.55;0.95;;;11.80;79.20;;;;;;5008992;28;20061;-69
2022/10/11 08:38:49;;;;;;;2.08;1.20;;;11.90;79.20;;;;;;4993405;28;20022;-67
2022/10/11 08:41:23;;;;;;;7.20;1.88;;;12.00;79.10;;;;;;4990913;28;20053;-69
2022/10/11 08:44:19;;;;;;;5.18;1.65;;;12.10;78.90;;;;;;5008534;28;20055;-69
2022/10/11 08:46:49;;;;;;;1.70;1.27;;;12.20;78.80;;;;;;4992375;28;20022;-67
2022/10/11 08:49:18;;;;;;;6.60;2.15;;;12.20;78.70;;;;;;5008726;28;20433;-69
2022/10/11 08:51:46;;;;;;;3.75;1.65;;;12.30;78.30;;;;;;5010126;28;20033;-67
2022/10/11 08:54:18;;;;;;;2.60;1.48;;;12.40;78.20;;;;;;5006870;28;20033;-69
2022/10/11 08:56:44;;;;;;;1.88;1.30;;;12.60;78.00;;;;;;5010161;28;20092;-69
2022/10/11 08:59:10;;;;;;;7.40;2.22;;;12.70;77.80;;;;;;5011276;28;20116;-69
2022/10/11 09:01:46;;;;;;;8.52;2.30;;;12.80;77.50;;;;;;4992906;28;20430;-68
2022/10/11 09:04:16;;;;;;;7.18;1.90;;;12.90;77.20;;;;;;4990989;28;20045;-67
2022/10/11 09:06:48;;;;;;;1.55;1.33;;;13.00;76.50;;;;;;4990999;28;20374;-67
2022/10/11 09:09:54;;;;;;;5.95;2.78;;;13.10;76.20;;;;;;5007517;28;20061;-69
2022/10/11 09:12:36;;;;;;;4.18;1.95;;;13.30;76.10;;;;;;4965550;28;20763;-69
2022/10/11 09:15:20;;;;;;;1.75;1.35;;;13.40;75.80;;;;;;5017119;28;20029;-69
2022/10/11 09:17:49;;;;;;;5.10;1.85;;;13.50;75.70;;;;;;4991354;28;20164;-70
2022/10/11 09:20:35;;;;;;;1.77;1.30;;;13.70;75.50;;;;;;5001649;28;20084;-67
2022/10/11 09:23:19;;;;;;;3.08;2.00;;;13.80;75.20;;;;;;5004048;28;20148;-68
2022/10/11 09:25:50;;;;;;;1.83;1.35;;;14.00;74.70;;;;;;5009630;28;20105;-68
2022/10/11 09:28:45;;;;;;;5.45;1.80;;;14.10;74.50;;;;;;5016609;28;20481;-68
2022/10/11 09:31:11;;;;;;;5.93;1.83;;;14.20;74.10;;;;;;5005926;28;20032;-66
2022/10/11 09:33:44;;;;;;;1.95;1.05;;;14.30;73.80;;;;;;4999822;28;20440;-66
2022/10/11 09:36:20;;;;;;;1.55;1.25;;;14.40;73.50;;;;;;5005247;28;20138;-67
2022/10/11 09:39:23;;;;;;;3.83;1.73;;;14.60;71.90;;;;;;5006917;28;20077;-66
2022/10/11 09:42:10;;;;;;;2.35;1.35;;;14.70;71.70;;;;;;5009702;28;20030;-67
2022/10/11 09:44:47;;;;;;;5.10;1.70;;;14.80;71.30;;;;;;4982896;28;20112;-69
2022/10/11 09:47:16;;;;;;;3.17;1.58;;;14.90;71.30;;;;;;5007275;28;20401;-68
2022/10/11 09:49:55;;;;;;;1.42;1.17;;;15.10;71.30;;;;;;5007724;28;20497;-68
2022/10/11 09:52:23;;;;;;;1.58;1.38;;;15.30;70.90;;;;;;5008566;28;20105;-69
2022/10/11 09:54:56;;;;;;;1.48;1.15;;;15.40;70.30;;;;;;4992347;28;20010;-69
2022/10/11 09:57:27;;;;;;;4.57;1.33;;;15.50;69.90;;;;;;5008974;28;20031;-69
2022/10/11 10:00:06;;;;;;;2.03;1.33;;;15.60;69.80;;;;;;5011753;28;20065;-69
2022/10/11 10:02:53;;;;;;;2.35;1.35;;;15.80;68.10;;;;;;5015190;28;20038;-69
2022/10/11 10:05:25;;;;;;;3.38;0.88;;;15.80;66.90;;;;;;5022388;28;20033;-70
2022/10/11 10:08:00;;;;;;;4.30;1.50;;;15.80;67.40;;;;;;5016904;28;20113;-69
2022/10/11 10:10:28;;;;;;;1.52;1.08;;;15.90;66.20;;;;;;5017097;28;20097;-69
2022/10/11 10:12:57;;;;;;;1.27;0.90;;;16.00;66.70;;;;;;5013303;28;20477;-69
2022/10/11 10:15:35;;;;;;;1.75;1.25;;;16.20;66.50;;;;;;5012814;28;20477;-68
2022/10/11 10:18:02;;;;;;;0.88;0.77;;;16.30;65.90;;;;;;5012531;28;20485;-69
2022/10/11 10:20:34;;;;;;;3.05;1.30;;;16.50;65.90;;;;;;4992014;28;20069;-68
2022/10/11 10:23:19;;;;;;;0.63;0.63;;;16.70;65.40;;;;;;5002305;28;20077;-68
2022/10/11 10:25:49;;;;;;;4.78;1.15;;;16.80;65.50;;;;;;5006480;28;20520;-69
2022/10/11 10:28:23;;;;;;;1.85;0.50;;;16.90;63.70;;;;;;4995447;28;20033;-69
2022/10/11 10:30:55;;;;;;;2.95;0.80;;;17.00;63.80;;;;;;5010794;28;20018;-69
2022/10/11 10:33:23;;;;;;;2.03;0.98;;;17.10;63.80;;;;;;5011411;28;20049;-69
2022/10/11 10:35:56;;;;;;;1.63;0.93;;;17.20;63.90;;;;;;4989462;28;20029;-69
2022/10/11 10:38:30;;;;;;;0.68;0.68;;;17.40;62.60;;;;;;4996401;28;20701;-70
2022/10/11 10:41:00;;;;;;;1.40;1.00;;;17.40;61.50;;;;;;5012231;28;20030;-70
2022/10/11 10:43:31;;;;;;;1.52;0.85;;;17.50;62.00;;;;;;5007161;28;20030;-70
2022/10/11 10:46:27;;;;;;;1.03;0.80;;;17.60;62.30;;;;;;5012986;28;20033;-70
2022/10/11 10:49:11;;;;;;;3.38;0.93;;;17.70;61.30;;;;;;5009543;28;20112;-70
2022/10/11 10:52:13;;;;;;;5.28;0.75;;;17.80;61.20;;;;;;5010627;28;20122;-71
2022/10/11 10:54:55;;;;;;;1.77;0.80;;;17.90;60.70;;;;;;5009077;28;20095;-71
2022/10/11 10:57:40;;;;;;;3.05;1.23;;;18.00;59.70;;;;;;5010395;28;20425;-70
2022/10/11 11:00:20;;;;;;;2.28;0.90;;;18.10;59.90;;;;;;5009781;28;20032;-70
2022/10/11 11:03:04;;;;;;;1.23;0.90;;;18.30;59.70;;;;;;4992252;28;20042;-71
2022/10/11 11:05:56;;;;;;;2.60;0.85;;;18.40;57.20;;;;;;5007999;28;20254;-70
2022/10/11 11:08:53;;;;;;;2.53;0.63;;;18.40;56.30;;;;;;4988579;28;20034;-70
2022/10/11 11:11:28;;;;;;;2.15;0.93;;;18.60;56.10;;;;;;5009948;28;20048;-71
2022/10/11 11:14:14;;;;;;;4.57;0.95;;;18.80;56.30;;;;;;5014282;28;20089;-69
2022/10/11 11:17:00;;;;;;;1.67;0.90;;;18.80;55.30;;;;;;5006240;28;20626;-70
2022/10/11 11:19:45;;;;;;;1.20;0.55;;;18.80;56.10;;;;;;4965268;28;20056;-70
2022/10/11 11:22:48;;;;;;;1.27;0.77;;;18.90;55.50;;;;;;4989931;28;20042;-70
2022/10/11 11:25:26;;;;;;;1.67;1.05;;;19.00;55.30;;;;;;5007082;28;20528;-70
2022/10/11 11:28:20;;;;;;;2.83;1.30;;;19.10;54.40;;;;;;5010973;28;20045;-70
2022/10/11 11:31:05;;;;;;;1.10;0.63;;;19.30;54.60;;;;;;5006635;28;20696;-70
2022/10/11 11:33:38;;;;;;;3.45;1.25;;;19.40;55.00;;;;;;5007848;28;20439;-69
2022/10/11 11:36:12;;;;;;;0.98;0.68;;;19.50;54.30;;;;;;5011947;28;20058;-69
2022/10/11 11:38:54;;;;;;;1.48;1.23;;;19.70;54.10;;;;;;5006871;28;20030;-69
2022/10/11 11:41:21;;;;;;;3.10;1.37;;;19.90;54.40;;;;;;5009626;28;20116;-70
2022/10/11 11:44:14;;;;;;;1.02;0.77;;;20.00;53.40;;;;;;4992646;28;20021;-71
2022/10/11 11:46:43;;;;;;;;;;;20.10;53.30;;;;;;5009831;28;20540;-70
2022/10/11 11:49:38;;;;;;;2.08;1.33;;;20.20;53.10;;;;;;5009898;28;19909;-70
2022/10/11 11:52:10;;;;;;;2.83;1.15;;;20.30;53.50;;;;;;5002622;28;20088;-70
2022/10/11 11:55:04;;;;;;;1.95;0.85;;;20.50;52.40;;;;;;5014024;28;20017;-71
2022/10/11 11:57:48;;;;;;;3.25;0.80;;;20.60;51.30;;;;;;4978987;28;20231;-69
2022/10/11 12:00:20;;;;;;;3.00;0.85;;;20.60;51.90;;;;;;5016505;28;20028;-69
2022/10/11 12:03:08;;;;;;;1.55;1.13;;;20.70;51.10;;;;;;5011673;28;20030;-69
2022/10/11 12:05:35;;;;;;;1.27;0.63;;;20.60;51.00;;;;;;5007691;28;20029;-69
2022/10/11 12:08:30;;;;;;;2.00;0.85;;;20.40;51.30;;;;;;5009936;28;20025;-71
2022/10/11 12:11:00;;;;;;;0.93;0.60;;;20.20;52.00;;;;;;5009183;28;20042;-70
2022/10/11 12:13:38;;;;;;;4.88;0.95;;;19.90;52.70;;;;;;4979354;28;20026;-70
2022/10/11 12:16:13;;;;;;;0.50;0.50;;;19.60;53.30;;;;;;5009509;28;20030;-69
2022/10/11 12:18:53;;;;;;;1.25;0.88;;;19.40;53.90;;;;;;5010114;28;20520;-70
2022/10/11 12:21:34;;;;;;;0.57;0.52;;;19.30;54.10;;;;;;4970672;28;1146993;-70
2022/10/11 12:24:20;;;;;;;2.60;0.98;;;19.10;54.20;;;;;;5016198;28;20025;-71
2022/10/11 12:27:00;;;;;;;1.80;1.00;;;19.00;54.70;;;;;;5011694;28;20049;-69
2022/10/11 12:29:45;;;;;;;3.40;1.05;;;18.90;54.70;;;;;;5010197;28;20555;-69
2022/10/11 12:32:26;;;;;;;1.98;0.57;;;18.80;55.20;;;;;;4997851;28;20025;-70
2022/10/11 12:35:30;;;;;;;6.05;0.73;;;18.70;55.60;;;;;;5015833;28;20025;-70
2022/10/11 12:38:28;;;;;;;0.60;0.50;;;18.60;55.20;;;;;;5009021;28;20149;-69
2022/10/11 12:40:59;;;;;;;1.17;0.63;;;18.40;54.90;;;;;;5005735;28;20037;-68
2022/10/11 12:43:29;;;;;;;5.22;1.02;;;18.30;55.20;;;;;;4997521;28;20036;-69
2022/10/11 12:45:55;;;;;;;1.13;0.70;;;18.10;55.70;;;;;;4984656;28;20469;-70
2022/10/11 12:48:37;;;;;;;1.05;0.70;;;18.10;55.80;;;;;;4992194;28;20034;-71
2022/10/11 12:51:12;;;;;;;2.17;0.77;;;18.00;55.70;;;;;;5022615;28;20030;-71
2022/10/11 12:54:12;;;;;;;0.80;0.47;;;17.90;56.00;;;;;;5010903;28;20112;-70
2022/10/11 12:57:07;;;;;;;3.42;0.93;;;18.00;56.10;;;;;;4997786;28;20030;-69
2022/10/11 12:59:33;;;;;;;2.65;0.70;;;18.00;56.30;;;;;;4960637;28;20077;-69
2022/10/11 13:01:59;;;;;;;1.45;0.77;;;18.00;57.30;;;;;;5008427;28;20029;-69
2022/10/11 13:04:30;;;;;;;1.10;0.40;;;18.20;57.70;;;;;;5011372;28;20386;-71
2022/10/11 13:07:02;;;;;;;2.75;0.75;;;18.50;57.80;;;;;;5016280;28;20092;-71
2022/10/11 13:09:40;;;;;;;0.73;0.55;;;19.20;56.80;;;;;;5010570;28;20034;-69
2022/10/11 13:12:11;;;;;;;1.00;0.80;;;20.20;55.00;;;;;;4990730;28;20018;-69
2022/10/11 13:14:43;;;;;;;1.30;0.80;;;21.20;52.20;;;;;;5009798;28;20474;-69
2022/10/11 13:17:18;;;;;;;0.50;0.50;;;21.90;50.10;;;;;;5004517;28;20080;-69
2022/10/11 13:19:44;;;;;;;2.63;0.70;;;22.30;48.40;;;;;;5008270;28;20038;-67
2022/10/11 13:22:19;;;;;;;1.65;0.68;;;23.00;46.90;;;;;;4991760;28;20100;-69
2022/10/11 13:24:45;;;;;;;2.40;0.93;;;24.40;44.90;;;;;;4991309;28;20022;-69
2022/10/11 13:27:22;;;;;;;2.40;0.70;;;24.90;43.20;;;;;;5010006;28;20018;-69